createdAt,value
2018-04-07T00:00:02.108Z,1.60
2018-04-07T00:00:35.602Z,1.80
2018-04-07T00:01:09.155Z,1.73
2018-04-07T00:01:43.631Z,2.20
2018-04-07T00:02:17.403Z,2.00
2018-04-07T00:02:51.268Z,1.40
2018-04-07T00:03:25.823Z,1.60
2018-04-07T00:03:59.649Z,1.85
2018-04-07T00:04:33.790Z,1.90
2018-04-07T00:05:07.539Z,1.65
2018-04-07T00:05:41.250Z,1.90
2018-04-07T00:06:14.987Z,1.92
2018-04-07T00:06:48.751Z,2.10
2018-04-07T00:07:22.478Z,1.50
2018-04-07T00:07:56.195Z,1.77
2018-04-07T00:08:30.674Z,1.70
2018-04-07T00:09:03.489Z,1.90
2018-04-07T00:09:37.644Z,1.90
2018-04-07T00:10:11.431Z,1.75
2018-04-07T00:10:45.161Z,2.47
2018-04-07T00:11:19.636Z,1.90
2018-04-07T00:11:53.375Z,1.85
2018-04-07T00:12:27.091Z,2.25
2018-04-07T00:13:00.811Z,1.67
2018-04-07T00:13:34.521Z,2.45
2018-04-07T00:14:08.237Z,2.08
2018-04-07T00:14:41.960Z,1.92
2018-04-07T00:15:15.708Z,2.42
2018-04-07T00:15:50.200Z,2.17
2018-04-07T00:16:23.918Z,2.15
2018-04-07T00:16:58.400Z,2.12
2018-04-07T00:17:32.120Z,2.28
2018-04-07T00:18:05.836Z,1.87
2018-04-07T00:18:39.548Z,2.10
2018-04-07T00:19:13.269Z,2.20
2018-04-07T00:19:47.756Z,2.15
2018-04-07T00:20:21.287Z,2.20
2018-04-07T00:20:55.006Z,2.62
2018-04-07T00:21:28.726Z,2.08
2018-04-07T00:22:02.447Z,2.55
2018-04-07T00:22:36.699Z,2.30
2018-04-07T00:23:10.199Z,2.60
2018-04-07T00:23:43.683Z,2.00
2018-04-07T00:24:17.384Z,2.35
2018-04-07T00:24:51.105Z,2.50
2018-04-07T00:25:25.616Z,2.85
2018-04-07T00:26:00.124Z,2.40
2018-04-07T00:26:34.607Z,2.83
2018-04-07T00:27:08.088Z,2.42
2018-04-07T00:27:41.800Z,2.30
2018-04-07T00:28:16.286Z,2.78
2018-04-07T00:28:50.016Z,2.15
2018-04-07T00:29:23.732Z,3.03
2018-04-07T00:29:57.408Z,2.45
2018-04-07T00:30:31.147Z,2.70
2018-04-07T00:31:04.865Z,2.70
2018-04-07T00:31:39.333Z,2.65
2018-04-07T00:32:13.060Z,2.90
2018-04-07T00:32:47.541Z,3.17
2018-04-07T00:33:21.444Z,3.05
2018-04-07T00:33:55.163Z,2.92
2018-04-07T00:34:28.874Z,2.40
2018-04-07T00:35:02.593Z,2.97
2018-04-07T00:35:36.330Z,2.92
2018-04-07T00:36:10.806Z,2.60
2018-04-07T00:36:44.520Z,2.90
2018-04-07T00:37:19.020Z,2.75
2018-04-07T00:37:52.514Z,2.95
2018-04-07T00:38:26.989Z,3.00
2018-04-07T00:39:00.711Z,2.50
2018-04-07T00:39:35.183Z,3.08
2018-04-07T00:40:08.666Z,3.40
2018-04-07T00:40:42.180Z,2.40
2018-04-07T00:41:15.897Z,3.00
2018-04-07T00:41:50.392Z,3.15
2018-04-07T00:42:24.865Z,4.03
2018-04-07T00:42:58.356Z,3.53
2018-04-07T00:43:31.832Z,2.72
2018-04-07T00:44:05.555Z,2.90
2018-04-07T00:44:39.278Z,2.97
2018-04-07T00:45:12.998Z,3.03
2018-04-07T00:45:46.758Z,3.22
2018-04-07T00:46:20.480Z,2.80
2018-04-07T00:46:54.191Z,2.80
2018-04-07T00:47:27.679Z,3.00
2018-04-07T00:48:01.388Z,3.28
2018-04-07T00:48:35.646Z,3.40
2018-04-07T00:49:09.380Z,2.90
2018-04-07T00:49:43.190Z,3.30
2018-04-07T00:50:17.676Z,3.33
2018-04-07T00:50:51.428Z,3.30
2018-04-07T00:51:25.207Z,3.58
2018-04-07T00:51:58.922Z,3.20
2018-04-07T00:52:43.810Z,3.15
2018-04-07T00:53:18.297Z,3.25
2018-04-07T00:53:52.036Z,3.75
2018-04-07T00:54:26.296Z,3.17
2018-04-07T00:55:00.011Z,2.80
2018-04-07T00:55:34.490Z,3.17
2018-04-07T00:56:08.245Z,3.37
2018-04-07T00:56:41.956Z,3.30
2018-04-07T00:57:15.456Z,3.45
2018-04-07T00:57:49.148Z,2.90
2018-04-07T00:58:22.633Z,3.40
2018-04-07T00:58:56.335Z,3.10
2018-04-07T00:59:30.054Z,2.65
2018-04-07T01:00:03.862Z,3.17
2018-04-07T01:00:37.350Z,3.22
2018-04-07T01:01:11.112Z,3.50
2018-04-07T01:01:45.608Z,3.08
2018-04-07T01:02:19.406Z,3.20
2018-04-07T01:02:53.883Z,3.35
2018-04-07T01:03:27.609Z,2.83
2018-04-07T01:04:02.089Z,2.83
2018-04-07T01:04:35.804Z,2.87
2018-04-07T01:05:09.501Z,3.17
2018-04-07T01:05:43.764Z,2.95
2018-04-07T01:06:17.500Z,3.10
2018-04-07T01:06:51.991Z,3.20
2018-04-07T01:07:25.706Z,3.92
2018-04-07T01:07:59.428Z,3.53
2018-04-07T01:08:33.164Z,3.50
2018-04-07T01:09:06.236Z,2.95
2018-04-07T01:09:39.954Z,3.20
2018-04-07T01:10:14.427Z,3.30
2018-04-07T01:10:48.136Z,2.85
2018-04-07T01:11:22.668Z,3.22
2018-04-07T01:11:56.379Z,3.00
2018-04-07T01:12:29.876Z,3.17
2018-04-07T01:13:03.486Z,3.97
2018-04-07T01:13:37.190Z,3.50
2018-04-07T01:14:50.994Z,2.90
2018-04-07T01:15:24.722Z,3.55
2018-04-07T01:15:59.190Z,3.80
2018-04-07T01:16:32.938Z,2.83
2018-04-07T01:17:07.416Z,3.75
2018-04-07T01:17:41.130Z,3.42
2018-04-07T01:18:15.616Z,3.35
2018-04-07T01:18:49.335Z,3.20
2018-04-07T01:19:23.691Z,3.30
2018-04-07T01:19:57.416Z,3.50
2018-04-07T01:20:31.892Z,3.53
2018-04-07T01:21:05.596Z,4.03
2018-04-07T01:21:39.341Z,3.25
2018-04-07T01:22:13.054Z,3.67
2018-04-07T01:22:46.772Z,3.53
2018-04-07T01:23:21.030Z,3.80
2018-04-07T01:23:54.744Z,3.60
2018-04-07T01:24:28.454Z,3.50
2018-04-07T01:25:02.188Z,3.65
2018-04-07T01:25:35.902Z,3.83
2018-04-07T01:26:09.626Z,3.35
2018-04-07T01:26:43.392Z,3.28
2018-04-07T01:27:17.110Z,3.42
2018-04-07T01:27:50.827Z,3.12
2018-04-07T01:28:25.308Z,3.70
2018-04-07T01:28:59.060Z,4.32
2018-04-07T01:29:32.778Z,4.18
2018-04-07T01:30:06.280Z,3.40
2018-04-07T01:30:40.004Z,4.32
2018-04-07T01:31:13.802Z,4.57
2018-04-07T01:31:47.565Z,3.70
2018-04-07T01:32:21.278Z,3.80
2018-04-07T01:32:55.012Z,3.78
2018-04-07T01:33:28.722Z,3.37
2018-04-07T01:34:02.424Z,3.58
2018-04-07T01:34:36.140Z,3.40
2018-04-07T01:35:09.849Z,3.90
2018-04-07T01:35:43.686Z,3.87
2018-04-07T01:36:17.394Z,3.55
2018-04-07T01:36:51.902Z,4.47
2018-04-07T01:37:25.623Z,3.85
2018-04-07T01:37:59.338Z,4.25
2018-04-07T01:38:33.048Z,4.20
2018-04-07T01:39:06.433Z,3.60
2018-04-07T01:39:39.926Z,4.10
2018-04-07T01:40:13.428Z,4.30
2018-04-07T01:40:47.896Z,3.85
2018-04-07T01:41:21.606Z,4.87
2018-04-07T01:41:55.118Z,4.35
2018-04-07T01:42:29.376Z,4.03
2018-04-07T01:43:03.102Z,4.30
2018-04-07T01:43:37.588Z,3.70
2018-04-07T01:44:11.342Z,5.03
2018-04-07T01:44:45.050Z,4.22
2018-04-07T01:45:18.778Z,4.82
2018-04-07T01:45:53.253Z,4.57
2018-04-07T01:46:26.986Z,4.12
2018-04-07T01:47:00.727Z,4.12
2018-04-07T01:47:34.438Z,3.75
2018-04-07T01:48:08.144Z,3.72
2018-04-07T01:48:41.860Z,4.30
2018-04-07T01:49:16.344Z,4.40
2018-04-07T01:49:50.056Z,4.50
2018-04-07T01:50:24.570Z,5.10
2018-04-07T01:50:58.452Z,4.03
2018-04-07T01:51:32.938Z,4.10
2018-04-07T01:52:06.686Z,4.20
2018-04-07T01:52:40.404Z,4.35
2018-04-07T01:53:14.132Z,4.60
2018-04-07T01:53:47.836Z,4.20
2018-04-07T01:54:22.306Z,4.43
2018-04-07T01:54:56.032Z,4.22
2018-04-07T01:55:30.506Z,4.75
2018-04-07T01:56:04.228Z,5.03
2018-04-07T01:56:38.718Z,4.80
2018-04-07T01:57:12.454Z,4.90
2018-04-07T01:57:46.170Z,4.40
2018-04-07T01:58:19.893Z,4.18
2018-04-07T01:58:53.610Z,4.57
2018-04-07T01:59:28.098Z,4.80
2018-04-07T02:00:01.831Z,4.95
2018-04-07T02:00:35.592Z,4.68
2018-04-07T02:01:10.074Z,4.18
2018-04-07T02:01:43.484Z,4.90
2018-04-07T02:02:17.994Z,5.12
2018-04-07T02:02:52.478Z,4.43
2018-04-07T02:03:26.195Z,4.40
2018-04-07T02:04:00.675Z,4.20
2018-04-07T02:04:34.396Z,5.35
2018-04-07T02:05:08.554Z,4.72
2018-04-07T02:05:42.290Z,4.80
2018-04-07T02:06:16.767Z,4.10
2018-04-07T02:06:50.578Z,4.62
2018-04-07T02:07:25.196Z,4.10
2018-04-07T02:07:59.668Z,4.90
2018-04-07T02:08:33.370Z,5.07
2018-04-07T02:09:06.422Z,5.95
2018-04-07T02:09:40.135Z,5.20
2018-04-07T02:10:13.850Z,5.28
2018-04-07T02:10:48.337Z,4.90
2018-04-07T02:11:22.051Z,5.28
2018-04-07T02:11:56.548Z,5.07
2018-04-07T02:12:31.074Z,5.03
2018-04-07T02:13:05.546Z,4.72
2018-04-07T02:13:39.254Z,4.60
2018-04-07T02:14:12.960Z,4.32
2018-04-07T02:14:47.440Z,5.05
2018-04-07T02:15:21.159Z,4.75
2018-04-07T02:15:55.632Z,4.97
2018-04-07T02:16:29.332Z,5.37
2018-04-07T02:17:03.040Z,5.40
2018-04-07T02:17:37.562Z,5.25
2018-04-07T02:18:16.695Z,5.20
2018-04-07T02:18:50.404Z,5.30
2018-04-07T02:19:24.149Z,5.53
2018-04-07T02:19:57.850Z,4.87
2018-04-07T02:20:32.326Z,5.35
2018-04-07T02:21:05.719Z,4.80
2018-04-07T02:21:39.433Z,5.15
2018-04-07T02:22:13.935Z,5.40
2018-04-07T02:22:48.462Z,5.75
2018-04-07T02:23:22.189Z,5.18
2018-04-07T02:23:55.899Z,5.90
2018-04-07T02:24:29.616Z,5.95
2018-04-07T02:25:03.841Z,5.75
2018-04-07T02:25:37.553Z,5.22
2018-04-07T02:26:11.278Z,5.30
2018-04-07T02:26:44.980Z,5.10
2018-04-07T02:27:18.696Z,4.95
2018-04-07T02:27:52.431Z,5.28
2018-04-07T02:28:26.139Z,6.72
2018-04-07T02:28:59.855Z,5.70
2018-04-07T02:29:34.327Z,5.07
2018-04-07T02:30:08.065Z,5.68
2018-04-07T02:30:41.784Z,5.35
2018-04-07T02:31:15.518Z,5.57
2018-04-07T02:31:49.251Z,5.62
2018-04-07T02:32:22.631Z,6.00
2018-04-07T02:32:56.383Z,5.03
2018-04-07T02:33:29.902Z,5.60
2018-04-07T02:34:03.293Z,5.78
2018-04-07T02:34:36.992Z,4.70
2018-04-07T02:35:10.715Z,6.62
2018-04-07T02:35:44.426Z,5.07
2018-04-07T02:36:18.173Z,6.00
2018-04-07T02:36:51.907Z,5.95
2018-04-07T02:37:25.627Z,4.93
2018-04-07T02:37:59.377Z,5.70
2018-04-07T02:38:33.087Z,5.87
2018-04-07T02:39:06.927Z,5.40
2018-04-07T02:39:40.658Z,5.78
2018-04-07T02:40:14.582Z,6.30
2018-04-07T02:40:48.316Z,5.35
2018-04-07T02:41:22.045Z,6.07
2018-04-07T02:41:55.425Z,5.62
2018-04-07T02:42:29.348Z,5.45
2018-04-07T02:43:03.349Z,5.57
2018-04-07T02:43:37.086Z,5.30
2018-04-07T02:44:10.797Z,5.47
2018-04-07T02:44:44.516Z,5.18
2018-04-07T02:45:18.233Z,6.78
2018-04-07T02:45:51.975Z,4.80
2018-04-07T02:46:26.458Z,5.75
2018-04-07T02:47:00.177Z,5.18
2018-04-07T02:47:34.654Z,6.43
2018-04-07T02:48:08.397Z,5.95
2018-04-07T02:48:42.135Z,5.85
2018-04-07T02:49:15.849Z,5.90
2018-04-07T02:49:49.585Z,5.45
2018-04-07T02:50:23.331Z,5.07
2018-04-07T02:50:57.201Z,6.12
2018-04-07T02:51:30.940Z,5.35
2018-04-07T02:52:05.607Z,5.43
2018-04-07T02:52:39.329Z,5.10
2018-04-07T02:53:13.870Z,5.18
2018-04-07T02:53:47.587Z,4.97
2018-04-07T02:54:21.321Z,5.70
2018-04-07T02:54:55.801Z,5.25
2018-04-07T02:55:29.520Z,5.53
2018-04-07T02:56:03.871Z,5.53
2018-04-07T02:56:37.363Z,5.50
2018-04-07T02:57:11.119Z,5.20
2018-04-07T02:57:44.844Z,5.62
2018-04-07T02:58:18.599Z,5.70
2018-04-07T02:58:52.327Z,5.53
2018-04-07T02:59:26.048Z,5.85
2018-04-07T02:59:59.770Z,5.85
2018-04-07T03:00:33.515Z,6.30
2018-04-07T03:01:07.262Z,5.30
2018-04-07T03:01:40.989Z,5.43
2018-04-07T03:02:14.721Z,5.90
2018-04-07T03:02:49.211Z,5.97
2018-04-07T03:03:22.968Z,6.30
2018-04-07T03:03:56.696Z,5.65
2018-04-07T03:04:31.179Z,5.10
2018-04-07T03:05:04.579Z,5.15
2018-04-07T03:05:38.307Z,5.80
2018-04-07T03:06:12.796Z,5.80
2018-04-07T03:06:46.527Z,5.62
2018-04-07T03:07:20.238Z,5.25
2018-04-07T03:07:53.971Z,5.90
2018-04-07T03:08:28.494Z,5.45
2018-04-07T03:09:02.988Z,6.05
2018-04-07T03:09:37.482Z,5.65
2018-04-07T03:10:11.211Z,6.07
2018-04-07T03:10:44.933Z,6.05
2018-04-07T03:11:18.661Z,5.87
2018-04-07T03:11:52.383Z,5.75
2018-04-07T03:12:26.109Z,6.22
2018-04-07T03:12:59.497Z,5.78
2018-04-07T03:13:33.239Z,5.62
2018-04-07T03:14:07.729Z,5.85
2018-04-07T03:14:41.469Z,5.75
2018-04-07T03:15:15.167Z,5.15
2018-04-07T03:15:48.887Z,5.00
2018-04-07T03:16:22.609Z,5.12
2018-04-07T03:16:57.092Z,5.30
2018-04-07T03:17:30.837Z,6.03
2018-04-07T03:18:04.584Z,6.07
2018-04-07T03:18:38.333Z,4.72
2018-04-07T03:19:12.051Z,4.70
2018-04-07T03:19:45.785Z,5.60
2018-04-07T03:20:19.503Z,5.85
2018-04-07T03:20:53.217Z,5.82
2018-04-07T03:21:26.955Z,5.55
2018-04-07T03:22:00.673Z,5.53
2018-04-07T03:22:34.163Z,5.50
2018-04-07T03:23:07.671Z,5.30
2018-04-07T03:23:41.422Z,6.03
2018-04-07T03:24:15.141Z,4.90
2018-04-07T03:24:48.856Z,5.00
2018-04-07T03:25:22.577Z,5.87
2018-04-07T03:25:57.068Z,5.80
2018-04-07T03:26:30.779Z,4.72
2018-04-07T03:27:04.539Z,5.57
2018-04-07T03:27:38.257Z,4.95
2018-04-07T03:28:12.755Z,5.70
2018-04-07T03:28:47.275Z,4.75
2018-04-07T03:29:21.790Z,5.25
2018-04-07T03:29:55.513Z,4.97
2018-04-07T03:30:29.237Z,6.00
2018-04-07T03:31:02.967Z,5.68
2018-04-07T03:31:36.698Z,5.68
2018-04-07T03:32:10.425Z,5.87
2018-04-07T03:32:44.915Z,5.82
2018-04-07T03:33:18.639Z,5.40
2018-04-07T03:33:53.145Z,4.85
2018-04-07T03:34:27.642Z,5.10
2018-04-07T03:35:02.133Z,5.37
2018-04-07T03:35:35.855Z,4.87
2018-04-07T03:36:09.579Z,5.15
2018-04-07T03:36:43.299Z,5.40
2018-04-07T03:37:17.029Z,5.55
2018-04-07T03:37:50.753Z,5.05
2018-04-07T03:38:24.464Z,4.87
2018-04-07T03:38:58.211Z,6.15
2018-04-07T03:39:31.933Z,5.72
2018-04-07T03:40:05.669Z,5.30
2018-04-07T03:40:40.153Z,5.50
2018-04-07T03:41:13.879Z,5.15
2018-04-07T03:41:48.346Z,4.87
2018-04-07T03:42:21.839Z,5.70
2018-04-07T03:42:55.321Z,5.05
2018-04-07T03:43:29.034Z,5.40
2018-04-07T03:44:03.545Z,5.30
2018-04-07T03:44:38.029Z,5.97
2018-04-07T03:45:11.765Z,4.90
2018-04-07T03:45:45.250Z,5.85
2018-04-07T03:46:19.501Z,5.15
2018-04-07T03:46:52.988Z,5.65
2018-04-07T03:47:26.711Z,5.18
2018-04-07T03:48:00.951Z,5.15
2018-04-07T03:48:34.441Z,5.00
2018-04-07T03:49:07.620Z,5.20
2018-04-07T03:49:41.339Z,5.47
2018-04-07T03:50:15.055Z,5.57
2018-04-07T03:50:49.307Z,5.12
2018-04-07T03:51:22.783Z,5.87
2018-04-07T03:51:56.501Z,4.80
2018-04-07T03:52:30.222Z,5.40
2018-04-07T03:53:03.943Z,5.85
2018-04-07T03:53:37.671Z,5.20
2018-04-07T03:54:11.443Z,5.12
2018-04-07T03:54:45.160Z,5.68
2018-04-07T03:55:18.887Z,5.37
2018-04-07T03:55:53.385Z,5.70
2018-04-07T03:56:27.102Z,5.53
2018-04-07T03:57:00.810Z,5.72
2018-04-07T03:57:34.528Z,5.25
2018-04-07T03:58:08.247Z,5.57
2018-04-07T03:58:41.980Z,5.43
2018-04-07T03:59:15.739Z,5.45
2018-04-07T03:59:50.223Z,5.62
2018-04-07T04:00:23.720Z,5.53
2018-04-07T04:00:57.423Z,5.32
2018-04-07T04:01:31.919Z,5.57
2018-04-07T04:02:05.659Z,5.65
2018-04-07T04:02:39.387Z,5.45
2018-04-07T04:03:13.096Z,5.80
2018-04-07T04:03:46.577Z,5.25
2018-04-07T04:04:20.093Z,5.55
2018-04-07T04:04:53.601Z,7.43
2018-04-07T04:05:27.101Z,5.30
2018-04-07T04:06:00.622Z,6.47
2018-04-07T04:06:34.335Z,5.90
2018-04-07T04:07:08.808Z,5.15
2018-04-07T04:07:42.519Z,5.47
2018-04-07T04:08:17.003Z,5.60
2018-04-07T04:08:50.732Z,5.40
2018-04-07T04:09:24.479Z,5.78
2018-04-07T04:09:58.198Z,6.28
2018-04-07T04:10:32.677Z,5.82
2018-04-07T04:11:06.389Z,6.10
2018-04-07T04:11:40.127Z,5.80
2018-04-07T04:12:13.854Z,5.90
2018-04-07T04:12:47.567Z,5.75
2018-04-07T04:13:22.055Z,6.15
2018-04-07T04:13:55.777Z,5.32
2018-04-07T04:14:30.299Z,6.03
2018-04-07T04:15:03.691Z,5.12
2018-04-07T04:15:37.423Z,5.15
2018-04-07T04:16:11.147Z,5.20
2018-04-07T04:16:45.403Z,5.55
2018-04-07T04:17:18.921Z,6.10
2018-04-07T04:17:52.727Z,5.80
2018-04-07T04:18:27.211Z,6.10
2018-04-07T04:19:00.936Z,5.47
2018-04-07T04:19:34.685Z,5.93
2018-04-07T04:20:08.407Z,5.85
2018-04-07T04:20:42.887Z,5.47
2018-04-07T04:21:16.597Z,5.97
2018-04-07T04:21:50.313Z,5.70
2018-04-07T04:22:24.035Z,5.80
2018-04-07T04:22:57.765Z,6.20
2018-04-07T04:23:31.475Z,5.37
2018-04-07T04:24:05.963Z,6.00
2018-04-07T04:24:39.717Z,5.22
2018-04-07T04:25:13.445Z,6.22
2018-04-07T04:25:47.179Z,6.10
2018-04-07T04:26:20.904Z,5.57
2018-04-07T04:26:54.622Z,5.72
2018-04-07T04:27:28.347Z,5.85
2018-04-07T04:28:02.079Z,6.30
2018-04-07T04:28:35.801Z,5.47
2018-04-07T04:29:10.283Z,5.55
2018-04-07T04:29:44.033Z,4.90
2018-04-07T04:30:17.779Z,5.57
2018-04-07T04:30:51.501Z,5.53
2018-04-07T04:31:25.228Z,6.10
2018-04-07T04:31:58.954Z,5.05
2018-04-07T04:32:32.670Z,5.85
2018-04-07T04:33:07.162Z,6.32
2018-04-07T04:33:41.633Z,4.87
2018-04-07T04:34:15.349Z,6.03
2018-04-07T04:34:50.601Z,5.62
2018-04-07T04:35:25.155Z,5.22
2018-04-07T04:35:58.881Z,4.68
2018-04-07T04:36:32.603Z,5.65
2018-04-07T04:37:06.362Z,5.37
2018-04-07T04:37:40.065Z,6.15
2018-04-07T04:38:14.573Z,5.28
2018-04-07T04:38:48.829Z,5.60
2018-04-07T04:39:22.326Z,5.55
2018-04-07T04:39:56.058Z,5.93
2018-04-07T04:40:30.545Z,5.53
2018-04-07T04:41:04.257Z,5.30
2018-04-07T04:41:38.514Z,5.93
2018-04-07T04:42:11.921Z,6.07
2018-04-07T04:42:45.636Z,5.45
2018-04-07T04:43:20.125Z,6.22
2018-04-07T04:43:53.865Z,5.70
2018-04-07T04:44:27.580Z,5.93
2018-04-07T04:45:01.339Z,5.10
2018-04-07T04:45:35.063Z,5.43
2018-04-07T04:46:08.789Z,5.78
2018-04-07T04:46:43.281Z,5.50
2018-04-07T04:47:17.002Z,5.32
2018-04-07T04:47:51.480Z,4.90
2018-04-07T04:48:25.192Z,5.20
2018-04-07T04:48:59.337Z,5.68
2018-04-07T04:49:33.057Z,4.60
2018-04-07T04:50:06.821Z,5.78
2018-04-07T04:50:40.543Z,5.50
2018-04-07T04:51:14.255Z,5.10
2018-04-07T04:51:48.739Z,5.18
2018-04-07T04:52:22.457Z,5.35
2018-04-07T04:52:56.950Z,6.03
2018-04-07T04:53:30.657Z,5.05
2018-04-07T04:54:05.225Z,6.05
2018-04-07T04:54:38.941Z,5.53
2018-04-07T04:55:12.687Z,5.20
2018-04-07T04:55:46.391Z,4.82
2018-04-07T04:56:20.125Z,4.53
2018-04-07T04:56:54.611Z,5.28
2018-04-07T04:57:28.378Z,5.80
2018-04-07T04:58:02.105Z,4.50
2018-04-07T04:58:35.823Z,4.90
2018-04-07T04:59:09.547Z,5.68
2018-04-07T04:59:43.267Z,5.57
2018-04-07T05:00:17.026Z,5.25
2018-04-07T05:00:50.731Z,4.60
2018-04-07T05:01:24.449Z,4.93
2018-04-07T05:01:58.170Z,4.60
2018-04-07T05:02:31.893Z,4.80
2018-04-07T05:03:05.637Z,5.43
2018-04-07T05:03:39.347Z,4.40
2018-04-07T05:04:13.056Z,5.28
2018-04-07T05:04:46.771Z,4.40
2018-04-07T05:05:20.524Z,5.10
2018-04-07T05:05:54.264Z,5.25
2018-04-07T05:06:27.997Z,5.18
2018-04-07T05:07:01.722Z,4.47
2018-04-07T05:07:35.454Z,4.87
2018-04-07T05:08:09.167Z,5.00
2018-04-07T05:08:42.683Z,5.50
2018-04-07T05:09:16.400Z,4.45
2018-04-07T05:09:50.103Z,4.40
2018-04-07T05:10:23.859Z,4.60
2018-04-07T05:10:57.598Z,5.15
2018-04-07T05:11:32.095Z,5.53
2018-04-07T05:12:05.819Z,4.57
2018-04-07T05:12:40.314Z,5.00
2018-04-07T05:13:14.812Z,4.20
2018-04-07T05:13:49.307Z,5.22
2018-04-07T05:14:23.021Z,4.37
2018-04-07T05:14:57.507Z,5.62
2018-04-07T05:15:31.031Z,5.10
2018-04-07T05:16:04.577Z,4.80
2018-04-07T05:16:38.067Z,5.15
2018-04-07T05:17:11.797Z,4.80
2018-04-07T05:17:46.259Z,4.80
2018-04-07T05:18:19.992Z,4.55
2018-04-07T05:18:54.469Z,4.75
2018-04-07T05:19:27.638Z,4.95
2018-04-07T05:20:01.376Z,5.22
2018-04-07T05:20:35.195Z,5.18
2018-04-07T05:21:08.583Z,4.45
2018-04-07T05:21:42.296Z,4.90
2018-04-07T05:22:16.068Z,4.68
2018-04-07T05:22:50.719Z,5.35
2018-04-07T05:23:24.437Z,4.75
2018-04-07T05:23:58.172Z,5.25
2018-04-07T05:24:31.877Z,4.43
2018-04-07T05:25:06.034Z,4.80
2018-04-07T05:25:39.786Z,4.57
2018-04-07T05:26:14.289Z,4.87
2018-04-07T05:26:48.031Z,5.18
2018-04-07T05:27:21.805Z,5.32
2018-04-07T05:27:55.651Z,4.60
2018-04-07T05:28:30.136Z,4.90
2018-04-07T05:29:03.872Z,4.85
2018-04-07T05:29:38.366Z,5.05
2018-04-07T05:30:12.125Z,4.82
2018-04-07T05:30:45.921Z,4.53
2018-04-07T05:31:19.626Z,4.78
2018-04-07T05:31:53.363Z,5.30
2018-04-07T05:32:27.093Z,4.95
2018-04-07T05:33:00.819Z,4.32
2018-04-07T05:33:34.557Z,4.70
2018-04-07T05:34:08.061Z,4.50
2018-04-07T05:34:41.791Z,5.03
2018-04-07T05:35:16.281Z,4.72
2018-04-07T05:35:50.030Z,5.22
2018-04-07T05:36:23.750Z,5.53
2018-04-07T05:36:57.499Z,5.43
2018-04-07T05:37:32.031Z,5.55
2018-04-07T05:38:05.595Z,4.97
2018-04-07T05:38:39.321Z,5.47
2018-04-07T05:39:13.075Z,5.40
2018-04-07T05:39:46.893Z,4.95
2018-04-07T05:40:20.826Z,5.40
2018-04-07T05:40:56.459Z,4.87
2018-04-07T05:41:30.969Z,4.10
2018-04-07T05:42:04.497Z,4.68
2018-04-07T05:42:38.217Z,5.50
2018-04-07T05:43:11.939Z,5.20
2018-04-07T05:43:45.833Z,4.60
2018-04-07T05:44:19.858Z,4.95
2018-04-07T05:44:53.920Z,5.03
2018-04-07T05:45:27.820Z,5.25
2018-04-07T05:46:03.561Z,5.35
2018-04-07T05:46:37.713Z,4.75
2018-04-07T05:47:11.859Z,5.22
2018-04-07T05:47:46.453Z,4.95
2018-04-07T05:48:22.509Z,4.85
2018-04-07T05:48:56.417Z,4.65
2018-04-07T05:49:31.857Z,5.05
2018-04-07T05:50:05.755Z,5.25
2018-04-07T05:50:40.255Z,4.80
2018-04-07T05:51:13.993Z,4.75
2018-04-07T05:51:47.769Z,4.45
2018-04-07T05:52:21.496Z,4.40
2018-04-07T05:52:55.237Z,5.12
2018-04-07T05:53:29.737Z,4.87
2018-04-07T05:54:04.223Z,4.68
2018-04-07T05:54:37.939Z,5.75
2018-04-07T05:55:12.419Z,4.80
2018-04-07T05:55:46.146Z,4.65
2018-04-07T05:56:20.653Z,5.12
2018-04-07T05:56:55.125Z,4.95
2018-04-07T05:57:28.831Z,5.25
2018-04-07T05:58:02.548Z,5.22
2018-04-07T05:58:36.272Z,5.15
2018-04-07T05:59:10.031Z,4.82
2018-04-07T05:59:44.511Z,5.00
2018-04-07T06:00:17.827Z,5.20
2018-04-07T06:00:52.310Z,4.90
2018-04-07T06:01:26.849Z,5.62
2018-04-07T06:02:00.554Z,4.85
2018-04-07T06:02:34.279Z,5.20
2018-04-07T06:03:07.996Z,5.47
2018-04-07T06:03:42.483Z,5.20
2018-04-07T06:04:16.209Z,5.07
2018-04-07T06:04:50.703Z,4.78
2018-04-07T06:05:24.166Z,4.60
2018-04-07T06:05:57.882Z,5.30
2018-04-07T06:06:31.622Z,4.55
2018-04-07T06:07:05.340Z,5.60
2018-04-07T06:07:39.062Z,4.95
2018-04-07T06:08:13.553Z,5.32
2018-04-07T06:08:47.252Z,5.25
2018-04-07T06:09:20.636Z,4.85
2018-04-07T06:09:55.115Z,5.15
2018-04-07T06:10:28.828Z,4.78
2018-04-07T06:11:03.344Z,5.00
2018-04-07T06:11:37.863Z,4.90
2018-04-07T06:12:12.341Z,5.20
2018-04-07T06:12:45.727Z,5.10
2018-04-07T06:13:19.453Z,5.32
2018-04-07T06:13:53.193Z,5.30
2018-04-07T06:14:26.916Z,5.50
2018-04-07T06:15:01.391Z,6.03
2018-04-07T06:15:35.111Z,5.43
2018-04-07T06:16:08.818Z,5.60
2018-04-07T06:16:43.328Z,4.80
2018-04-07T06:17:17.817Z,5.10
2018-04-07T06:17:51.525Z,5.60
2018-04-07T06:18:25.025Z,5.65
2018-04-07T06:18:58.503Z,5.10
2018-04-07T06:19:32.231Z,5.87
2018-04-07T06:20:05.297Z,5.07
2018-04-07T06:20:38.787Z,5.40
2018-04-07T06:21:12.293Z,6.32
2018-04-07T06:21:46.074Z,4.80
2018-04-07T06:22:19.788Z,5.18
2018-04-07T06:22:53.522Z,5.43
2018-04-07T06:23:28.186Z,5.53
2018-04-07T06:24:01.895Z,5.35
2018-04-07T06:24:36.389Z,5.22
2018-04-07T06:25:10.126Z,5.15
2018-04-07T06:25:43.857Z,6.35
2018-04-07T06:26:17.575Z,5.80
2018-04-07T06:26:52.121Z,5.55
2018-04-07T06:27:25.911Z,5.80
2018-04-07T06:27:59.612Z,4.87
2018-04-07T06:28:33.340Z,5.68
2018-04-07T06:29:07.061Z,5.30
2018-04-07T06:29:41.541Z,5.85
2018-04-07T06:30:15.259Z,5.65
2018-04-07T06:30:49.759Z,5.47
2018-04-07T06:31:24.254Z,5.62
2018-04-07T06:31:58.014Z,5.80
2018-04-07T06:32:31.734Z,5.47
2018-04-07T06:33:05.486Z,5.45
2018-04-07T06:33:39.208Z,5.90
2018-04-07T06:34:12.921Z,5.78
2018-04-07T06:34:47.401Z,6.05
2018-04-07T06:35:21.117Z,5.97
2018-04-07T06:35:54.837Z,5.25
2018-04-07T06:36:28.563Z,5.50
2018-04-07T06:37:02.330Z,5.72
2018-04-07T06:37:36.053Z,5.93
2018-04-07T06:38:09.765Z,5.40
2018-04-07T06:38:43.486Z,5.40
2018-04-07T06:39:17.220Z,6.15
2018-04-07T06:39:50.941Z,5.40
2018-04-07T06:40:24.640Z,4.80
2018-04-07T06:40:58.339Z,5.80
2018-04-07T06:41:32.833Z,5.00
2018-04-07T06:42:06.578Z,5.12
2018-04-07T06:42:40.296Z,5.60
2018-04-07T06:43:14.026Z,5.50
2018-04-07T06:43:48.508Z,5.12
2018-04-07T06:44:22.243Z,6.72
2018-04-07T06:44:55.966Z,6.05
2018-04-07T06:45:29.691Z,5.45
2018-04-07T06:46:04.194Z,6.15
2018-04-07T06:46:38.471Z,6.57
2018-04-07T06:47:12.249Z,6.47
2018-04-07T06:47:46.107Z,5.22
2018-04-07T06:48:20.598Z,6.18
2018-04-07T06:48:55.097Z,5.20
2018-04-07T06:49:28.812Z,6.50
2018-04-07T06:50:02.539Z,9.85
2018-04-07T06:50:36.282Z,18.12
2018-04-07T06:51:10.786Z,9.68
2018-04-07T06:51:45.299Z,6.62
2018-04-07T06:52:19.817Z,7.22
2018-04-07T06:52:54.307Z,6.15
2018-04-07T06:53:28.802Z,7.68
2018-04-07T06:54:02.516Z,6.43
2018-04-07T06:54:37.012Z,7.28
2018-04-07T06:55:11.508Z,6.90
2018-04-07T06:55:45.248Z,7.30
2018-04-07T06:56:18.979Z,7.35
2018-04-07T06:56:52.808Z,6.95
2018-04-07T06:57:27.339Z,6.00
2018-04-07T06:58:01.064Z,6.85
2018-04-07T06:58:34.788Z,6.00
2018-04-07T06:59:08.536Z,6.05
2018-04-07T06:59:42.306Z,5.72
2018-04-07T07:00:16.038Z,6.03
2018-04-07T07:00:49.755Z,5.80
2018-04-07T07:01:23.508Z,6.72
2018-04-07T07:01:57.245Z,5.85
2018-04-07T07:02:31.766Z,6.78
2018-04-07T07:03:06.285Z,5.87
2018-04-07T07:03:40.004Z,6.12
2018-04-07T07:04:13.720Z,5.60
2018-04-07T07:04:47.225Z,5.57
2018-04-07T07:05:21.496Z,6.90
2018-04-07T07:05:55.224Z,6.87
2018-04-07T07:06:29.726Z,5.95
2018-04-07T07:07:03.456Z,5.95
2018-04-07T07:07:37.208Z,6.53
2018-04-07T07:08:10.931Z,6.20
2018-04-07T07:08:44.427Z,5.72
2018-04-07T07:09:18.155Z,6.53
2018-04-07T07:09:51.893Z,6.87
2018-04-07T07:10:26.391Z,6.00
2018-04-07T07:10:59.838Z,6.70
2018-04-07T07:11:33.343Z,6.05
2018-04-07T07:12:07.064Z,6.55
2018-04-07T07:12:40.810Z,5.50
2018-04-07T07:13:14.525Z,6.03
2018-04-07T07:13:48.235Z,5.95
2018-04-07T07:14:21.960Z,5.97
2018-04-07T07:14:55.683Z,6.15
2018-04-07T07:15:29.392Z,6.05
2018-04-07T07:16:02.843Z,5.90
2018-04-07T07:16:36.339Z,5.70
2018-04-07T07:17:10.064Z,6.20
2018-04-07T07:17:44.566Z,5.37
2018-04-07T07:18:18.838Z,6.05
2018-04-07T07:18:52.527Z,6.18
2018-04-07T07:19:26.748Z,6.30
2018-04-07T07:20:00.209Z,5.87
2018-04-07T07:20:33.928Z,5.28
2018-04-07T07:21:07.151Z,6.23
2018-04-07T07:21:40.643Z,5.60
2018-04-07T07:22:14.411Z,5.80
2018-04-07T07:22:48.158Z,6.00
2018-04-07T07:23:22.172Z,5.47
2018-04-07T07:23:56.673Z,5.95
2018-04-07T07:24:30.166Z,6.07
2018-04-07T07:25:04.424Z,5.80
2018-04-07T07:25:37.901Z,6.05
2018-04-07T07:26:11.638Z,6.00
2018-04-07T07:26:45.134Z,5.62
2018-04-07T07:27:18.360Z,5.90
2018-04-07T07:27:51.836Z,5.70
2018-04-07T07:28:25.568Z,6.10
2018-04-07T07:28:59.292Z,5.57
2018-04-07T07:29:33.777Z,5.78
2018-04-07T07:30:07.500Z,5.55
2018-04-07T07:30:40.985Z,6.15
2018-04-07T07:31:14.190Z,6.40
2018-04-07T07:31:47.933Z,5.82